sensor_id;sensor_type;location;lat;lon;timestamp;pressure;altitude;pressure_sealevel;temperature;humidity
67430;BME280;54298;52.076;5.264;2023-04-06T00:00:59;101764.0;;;2.29;69.0
67430;BME280;54298;52.076;5.264;2023-04-06T00:02:35;101760.0;;;2.33;69.05
67430;BME280;54298;52.076;5.264;2023-04-06T00:04:11;101763.0;;;2.29;69.23
67430;BME280;54298;52.076;5.264;2023-04-06T00:05:48;101761.0;;;2.32;69.22
67430;BME280;54298;52.076;5.264;2023-04-06T00:09:01;101758.0;;;2.32;69.31
67430;BME280;54298;52.076;5.264;2023-04-06T00:10:37;101755.0;;;2.42;69.08
67430;BME280;54298;52.076;5.264;2023-04-06T00:12:13;101745.0;;;2.46;68.81
67430;BME280;54298;52.076;5.264;2023-04-06T00:15:25;101751.0;;;2.35;69.27
67430;BME280;54298;52.076;5.264;2023-04-06T00:17:02;101747.0;;;2.33;69.41
67430;BME280;54298;52.076;5.264;2023-04-06T00:18:38;101742.0;;;2.46;69.08
67430;BME280;54298;52.076;5.264;2023-04-06T00:21:52;101745.0;;;2.4;69.38
67430;BME280;54298;52.076;5.264;2023-04-06T00:23:28;101742.0;;;2.44;69.34
67430;BME280;54298;52.076;5.264;2023-04-06T00:25:05;101742.0;;;2.46;69.55
67430;BME280;54298;52.076;5.264;2023-04-06T00:26:41;101736.0;;;2.54;69.27
67430;BME280;54298;52.076;5.264;2023-04-06T00:29:53;101734.0;;;2.46;69.78
67430;BME280;54298;52.076;5.264;2023-04-06T00:31:29;101730.0;;;2.44;69.99
67430;BME280;54298;52.076;5.264;2023-04-06T00:33:06;101730.0;;;2.52;69.69
67430;BME280;54298;52.076;5.264;2023-04-06T00:36:18;101731.0;;;2.46;69.77
67430;BME280;54298;52.076;5.264;2023-04-06T00:37:54;101730.0;;;2.56;69.58
67430;BME280;54298;52.076;5.264;2023-04-06T00:39:30;101727.0;;;2.56;69.66
67430;BME280;54298;52.076;5.264;2023-04-06T00:42:43;101726.0;;;2.62;69.47
67430;BME280;54298;52.076;5.264;2023-04-06T00:44:19;101721.0;;;2.48;69.91
67430;BME280;54298;52.076;5.264;2023-04-06T00:45:56;101717.0;;;2.48;70.08
67430;BME280;54298;52.076;5.264;2023-04-06T00:49:09;101719.0;;;2.54;69.91
67430;BME280;54298;52.076;5.264;2023-04-06T00:50:45;101713.0;;;2.52;70.02
67430;BME280;54298;52.076;5.264;2023-04-06T00:52:21;101710.0;;;2.5;70.28
67430;BME280;54298;52.076;5.264;2023-04-06T00:53:58;101705.0;;;2.54;70.27
67430;BME280;54298;52.076;5.264;2023-04-06T00:57:11;101708.0;;;2.42;70.63
67430;BME280;54298;52.076;5.264;2023-04-06T00:58:48;101707.0;;;2.54;70.33
67430;BME280;54298;52.076;5.264;2023-04-06T01:00:24;101706.0;;;2.56;70.12
67430;BME280;54298;52.076;5.264;2023-04-06T01:03:36;101697.0;;;2.6;70.06
67430;BME280;54298;52.076;5.264;2023-04-06T01:05:12;101700.0;;;2.61;70.44
67430;BME280;54298;52.076;5.264;2023-04-06T01:06:49;101700.0;;;2.58;70.44
67430;BME280;54298;52.076;5.264;2023-04-06T01:10:03;101699.0;;;2.7;70.24
67430;BME280;54298;52.076;5.264;2023-04-06T01:11:40;101689.0;;;2.75;70.0
67430;BME280;54298;52.076;5.264;2023-04-06T01:13:16;101686.0;;;2.8;69.77
67430;BME280;54298;52.076;5.264;2023-04-06T01:14:52;101686.0;;;2.7;70.28
67430;BME280;54298;52.076;5.264;2023-04-06T01:18:04;101683.0;;;2.77;70.39
67430;BME280;54298;52.076;5.264;2023-04-06T01:19:41;101680.0;;;2.84;70.16
67430;BME280;54298;52.076;5.264;2023-04-06T01:21:17;101682.0;;;2.94;69.73
67430;BME280;54298;52.076;5.264;2023-04-06T01:24:29;101684.0;;;2.88;69.94
67430;BME280;54298;52.076;5.264;2023-04-06T01:26:05;101685.0;;;2.83;70.36
67430;BME280;54298;52.076;5.264;2023-04-06T01:27:41;101682.0;;;2.88;70.11
67430;BME280;54298;52.076;5.264;2023-04-06T01:30:53;101678.0;;;3.09;68.97
67430;BME280;54298;52.076;5.264;2023-04-06T01:32:30;101676.0;;;3.18;68.44
67430;BME280;54298;52.076;5.264;2023-04-06T01:34:06;101668.0;;;3.29;68.03
67430;BME280;54298;52.076;5.264;2023-04-06T01:37:18;101668.0;;;3.36;67.72
67430;BME280;54298;52.076;5.264;2023-04-06T01:38:54;101665.0;;;3.4;67.35
67430;BME280;54298;52.076;5.264;2023-04-06T01:40:30;101660.0;;;3.46;67.2
67430;BME280;54298;52.076;5.264;2023-04-06T01:42:06;101658.0;;;3.57;66.53
67430;BME280;54298;52.076;5.264;2023-04-06T01:45:19;101661.0;;;3.64;66.44
67430;BME280;54298;52.076;5.264;2023-04-06T01:46:55;101658.0;;;3.78;66.09
67430;BME280;54298;52.076;5.264;2023-04-06T01:48:31;101651.0;;;3.79;65.8
67430;BME280;54298;52.076;5.264;2023-04-06T01:51:43;101655.0;;;3.97;64.87
67430;BME280;54298;52.076;5.264;2023-04-06T01:53:20;101652.0;;;3.93;65.08
67430;BME280;54298;52.076;5.264;2023-04-06T01:54:56;101646.0;;;4.01;64.74
67430;BME280;54298;52.076;5.264;2023-04-06T01:58:08;101645.0;;;4.12;64.56
67430;BME280;54298;52.076;5.264;2023-04-06T01:59:44;101648.0;;;4.16;64.19
67430;BME280;54298;52.076;5.264;2023-04-06T02:01:20;101642.0;;;4.14;63.52
67430;BME280;54298;52.076;5.264;2023-04-06T02:02:56;101636.0;;;4.28;62.68
67430;BME280;54298;52.076;5.264;2023-04-06T02:06:09;101639.0;;;4.45;62.02
67430;BME280;54298;52.076;5.264;2023-04-06T02:07:45;101633.0;;;4.58;61.57
67430;BME280;54298;52.076;5.264;2023-04-06T02:09:21;101621.0;;;4.7;60.9
67430;BME280;54298;52.076;5.264;2023-04-06T02:12:33;101622.0;;;4.82;60.46
67430;BME280;54298;52.076;5.264;2023-04-06T02:14:09;101617.0;;;4.87;60.09
67430;BME280;54298;52.076;5.264;2023-04-06T02:15:45;101619.0;;;4.91;60.05
67430;BME280;54298;52.076;5.264;2023-04-06T02:18:58;101613.0;;;4.87;59.55
67430;BME280;54298;52.076;5.264;2023-04-06T02:20:34;101613.0;;;5.07;59.02
67430;BME280;54298;52.076;5.264;2023-04-06T02:22:10;101611.0;;;5.14;58.61
67430;BME280;54298;52.076;5.264;2023-04-06T02:25:22;101611.0;;;5.23;58.14
67430;BME280;54298;52.076;5.264;2023-04-06T02:26:58;101611.0;;;5.31;57.8
67430;BME280;54298;52.076;5.264;2023-04-06T02:28:36;101608.0;;;5.32;57.58
67430;BME280;54298;52.076;5.264;2023-04-06T02:30:12;101606.0;;;5.49;57.28
67430;BME280;54298;52.076;5.264;2023-04-06T02:33:24;101603.0;;;5.43;57.03
67430;BME280;54298;52.076;5.264;2023-04-06T02:35:00;101593.0;;;5.42;57.03
67430;BME280;54298;52.076;5.264;2023-04-06T02:36:37;101597.0;;;5.54;56.59
67430;BME280;54298;52.076;5.264;2023-04-06T02:39:50;101596.0;;;5.61;56.22
67430;BME280;54298;52.076;5.264;2023-04-06T02:41:26;101597.0;;;5.59;56.26
67430;BME280;54298;52.076;5.264;2023-04-06T02:43:02;101593.0;;;5.64;55.79
67430;BME280;54298;52.076;5.264;2023-04-06T02:46:14;101588.0;;;5.59;55.98
67430;BME280;54298;52.076;5.264;2023-04-06T02:47:50;101586.0;;;5.59;56.4
67430;BME280;54298;52.076;5.264;2023-04-06T02:49:27;101587.0;;;5.72;55.75
67430;BME280;54298;52.076;5.264;2023-04-06T02:51:03;101586.0;;;5.77;55.28
67430;BME280;54298;52.076;5.264;2023-04-06T02:54:15;101583.0;;;5.74;54.91
67430;BME280;54298;52.076;5.264;2023-04-06T02:55:51;101575.0;;;5.88;54.74
67430;BME280;54298;52.076;5.264;2023-04-06T02:57:27;101576.0;;;5.98;54.48
67430;BME280;54298;52.076;5.264;2023-04-06T03:00:39;101571.0;;;5.95;54.4
67430;BME280;54298;52.076;5.264;2023-04-06T03:02:16;101569.0;;;5.92;54.56
67430;BME280;54298;52.076;5.264;2023-04-06T03:03:52;101562.0;;;5.86;54.96
67430;BME280;54298;52.076;5.264;2023-04-06T03:07:04;101564.0;;;5.95;54.56
67430;BME280;54298;52.076;5.264;2023-04-06T03:08:40;101557.0;;;5.99;54.55
67430;BME280;54298;52.076;5.264;2023-04-06T03:10:16;101564.0;;;6.05;54.41
67430;BME280;54298;52.076;5.264;2023-04-06T03:13:28;101557.0;;;6.06;54.0
67430;BME280;54298;52.076;5.264;2023-04-06T03:16:42;101561.0;;;6.06;54.4
67430;BME280;54298;52.076;5.264;2023-04-06T03:18:21;101555.0;;;6.07;54.25
67430;BME280;54298;52.076;5.264;2023-04-06T03:21:33;101558.0;;;6.04;54.32
67430;BME280;54298;52.076;5.264;2023-04-06T03:23:09;101562.0;;;6.02;54.68
67430;BME280;54298;52.076;5.264;2023-04-06T03:24:46;101553.0;;;6.04;54.87
67430;BME280;54298;52.076;5.264;2023-04-06T03:27:58;101556.0;;;6.05;54.49
67430;BME280;54298;52.076;5.264;2023-04-06T03:29:34;101548.0;;;6.14;54.42
67430;BME280;54298;52.076;5.264;2023-04-06T03:31:10;101550.0;;;6.09;54.18
67430;BME280;54298;52.076;5.264;2023-04-06T03:34:22;101545.0;;;6.13;54.04
67430;BME280;54298;52.076;5.264;2023-04-06T03:35:59;101548.0;;;5.95;54.68
67430;BME280;54298;52.076;5.264;2023-04-06T03:37:35;101546.0;;;5.95;54.92
67430;BME280;54298;52.076;5.264;2023-04-06T03:39:12;101545.0;;;6.0;54.59
67430;BME280;54298;52.076;5.264;2023-04-06T03:42:24;101542.0;;;6.04;54.58
67430;BME280;54298;52.076;5.264;2023-04-06T03:44:00;101546.0;;;5.98;54.65
67430;BME280;54298;52.076;5.264;2023-04-06T03:45:37;101541.0;;;5.89;55.37
67430;BME280;54298;52.076;5.264;2023-04-06T03:48:49;101542.0;;;5.76;55.52
67430;BME280;54298;52.076;5.264;2023-04-06T03:50:25;101541.0;;;5.69;55.78
67430;BME280;54298;52.076;5.264;2023-04-06T03:52:01;101539.0;;;5.74;55.78
67430;BME280;54298;52.076;5.264;2023-04-06T03:55:13;101541.0;;;5.83;55.4
67430;BME280;54298;52.076;5.264;2023-04-06T03:56:49;101536.0;;;5.63;55.87
67430;BME280;54298;52.076;5.264;2023-04-06T03:58:25;101539.0;;;5.64;56.2
67430;BME280;54298;52.076;5.264;2023-04-06T04:01:37;101536.0;;;5.67;55.91
67430;BME280;54298;52.076;5.264;2023-04-06T04:03:13;101538.0;;;5.65;56.49
67430;BME280;54298;52.076;5.264;2023-04-06T04:04:49;101535.0;;;5.64;56.62
67430;BME280;54298;52.076;5.264;2023-04-06T04:06:25;101533.0;;;5.63;56.54
67430;BME280;54298;52.076;5.264;2023-04-06T04:09:38;101533.0;;;5.46;57.27
67430;BME280;54298;52.076;5.264;2023-04-06T04:11:14;101533.0;;;5.59;56.71
67430;BME280;54298;52.076;5.264;2023-04-06T04:12:50;101534.0;;;5.57;56.71
67430;BME280;54298;52.076;5.264;2023-04-06T04:17:39;101533.0;;;5.57;56.89
67430;BME280;54298;52.076;5.264;2023-04-06T04:19:15;101534.0;;;5.62;56.73
67430;BME280;54298;52.076;5.264;2023-04-06T04:22:27;101531.0;;;5.64;56.66
67430;BME280;54298;52.076;5.264;2023-04-06T04:24:04;101528.0;;;5.67;56.71
67430;BME280;54298;52.076;5.264;2023-04-06T04:25:41;101524.0;;;5.66;56.92
67430;BME280;54298;52.076;5.264;2023-04-06T04:32:14;101530.0;;;5.66;57.13
67430;BME280;54298;52.076;5.264;2023-04-06T04:33:51;101528.0;;;5.67;56.72
67430;BME280;54298;52.076;5.264;2023-04-06T04:37:03;101527.0;;;5.73;56.49
67430;BME280;54298;52.076;5.264;2023-04-06T04:38:39;101530.0;;;5.74;56.6
67430;BME280;54298;52.076;5.264;2023-04-06T04:40:15;101527.0;;;5.66;57.11
67430;BME280;54298;52.076;5.264;2023-04-06T04:43:29;101524.0;;;5.65;57.3
67430;BME280;54298;52.076;5.264;2023-04-06T04:45:05;101528.0;;;5.76;56.9
67430;BME280;54298;52.076;5.264;2023-04-06T04:46:41;101530.0;;;5.75;57.44
67430;BME280;54298;52.076;5.264;2023-04-06T04:48:18;101530.0;;;5.86;56.99
67430;BME280;54298;52.076;5.264;2023-04-06T04:51:30;101530.0;;;5.82;57.05
67430;BME280;54298;52.076;5.264;2023-04-06T04:53:07;101523.0;;;5.81;57.25
67430;BME280;54298;52.076;5.264;2023-04-06T04:54:43;101517.0;;;5.71;57.29
67430;BME280;54298;52.076;5.264;2023-04-06T04:57:55;101519.0;;;5.8;57.06
67430;BME280;54298;52.076;5.264;2023-04-06T04:59:33;101517.0;;;5.76;57.85
67430;BME280;54298;52.076;5.264;2023-04-06T05:01:11;101515.0;;;5.72;57.53
67430;BME280;54298;52.076;5.264;2023-04-06T05:04:24;101517.0;;;5.91;57.23
67430;BME280;54298;52.076;5.264;2023-04-06T05:07:36;101521.0;;;6.0;56.59
67430;BME280;54298;52.076;5.264;2023-04-06T05:09:13;101512.0;;;6.02;56.59
67430;BME280;54298;52.076;5.264;2023-04-06T05:12:26;101510.0;;;5.98;56.32
67430;BME280;54298;52.076;5.264;2023-04-06T05:14:02;101507.0;;;6.08;56.49
67430;BME280;54298;52.076;5.264;2023-04-06T05:15:39;101514.0;;;6.12;56.3
67430;BME280;54298;52.076;5.264;2023-04-06T05:18:52;101513.0;;;6.18;56.0
67430;BME280;54298;52.076;5.264;2023-04-06T05:20:28;101508.0;;;6.17;55.88
67430;BME280;54298;52.076;5.264;2023-04-06T05:22:05;101505.0;;;6.17;55.85
67430;BME280;54298;52.076;5.264;2023-04-06T05:25:18;101509.0;;;6.16;55.6
67430;BME280;54298;52.076;5.264;2023-04-06T05:26:55;101508.0;;;6.25;55.42
67430;BME280;54298;52.076;5.264;2023-04-06T05:28:32;101502.0;;;6.3;55.31
67430;BME280;54298;52.076;5.264;2023-04-06T05:30:08;101505.0;;;6.27;56.2
67430;BME280;54298;52.076;5.264;2023-04-06T05:33:22;101507.0;;;6.32;55.82
67430;BME280;54298;52.076;5.264;2023-04-06T05:34:59;101508.0;;;6.42;55.79
67430;BME280;54298;52.076;5.264;2023-04-06T05:36:36;101506.0;;;6.48;55.52
67430;BME280;54298;52.076;5.264;2023-04-06T05:39:48;101508.0;;;6.41;55.43
67430;BME280;54298;52.076;5.264;2023-04-06T05:41:24;101506.0;;;6.44;55.8
67430;BME280;54298;52.076;5.264;2023-04-06T05:43:01;101501.0;;;6.44;55.51
67430;BME280;54298;52.076;5.264;2023-04-06T05:46:14;101506.0;;;6.45;55.5
67430;BME280;54298;52.076;5.264;2023-04-06T05:47:51;101506.0;;;6.62;55.24
67430;BME280;54298;52.076;5.264;2023-04-06T05:49:27;101506.0;;;6.53;55.76
67430;BME280;54298;52.076;5.264;2023-04-06T05:51:03;101505.0;;;6.61;55.6
67430;BME280;54298;52.076;5.264;2023-04-06T05:54:17;101501.0;;;6.64;55.35
67430;BME280;54298;52.076;5.264;2023-04-06T05:55:53;101503.0;;;6.7;55.46
67430;BME280;54298;52.076;5.264;2023-04-06T05:57:29;101508.0;;;6.68;55.52
67430;BME280;54298;52.076;5.264;2023-04-06T06:00:43;101510.0;;;6.74;55.11
67430;BME280;54298;52.076;5.264;2023-04-06T06:02:19;101506.0;;;6.77;55.11
67430;BME280;54298;52.076;5.264;2023-04-06T06:03:57;101509.0;;;6.86;55.22
67430;BME280;54298;52.076;5.264;2023-04-06T06:07:10;101505.0;;;6.88;55.38
67430;BME280;54298;52.076;5.264;2023-04-06T06:08:46;101510.0;;;6.77;55.4
67430;BME280;54298;52.076;5.264;2023-04-06T06:10:22;101509.0;;;6.94;55.05
67430;BME280;54298;52.076;5.264;2023-04-06T06:12:00;101507.0;;;6.77;55.33
67430;BME280;54298;52.076;5.264;2023-04-06T06:15:12;101506.0;;;6.64;55.92
67430;BME280;54298;52.076;5.264;2023-04-06T06:16:48;101505.0;;;6.82;56.08
67430;BME280;54298;52.076;5.264;2023-04-06T06:18:24;101502.0;;;7.06;55.33
67430;BME280;54298;52.076;5.264;2023-04-06T06:21:36;101507.0;;;6.98;55.36
67430;BME280;54298;52.076;5.264;2023-04-06T06:23:13;101507.0;;;7.11;54.97
67430;BME280;54298;52.076;5.264;2023-04-06T06:24:50;101503.0;;;7.2;54.75
67430;BME280;54298;52.076;5.264;2023-04-06T06:28:02;101507.0;;;7.2;55.0
67430;BME280;54298;52.076;5.264;2023-04-06T06:29:38;101505.0;;;7.26;55.06
67430;BME280;54298;52.076;5.264;2023-04-06T06:31:14;101502.0;;;7.16;55.45
67430;BME280;54298;52.076;5.264;2023-04-06T06:32:51;101499.0;;;7.22;55.42
67430;BME280;54298;52.076;5.264;2023-04-06T06:36:04;101499.0;;;7.41;54.8
67430;BME280;54298;52.076;5.264;2023-04-06T06:37:40;101506.0;;;7.58;54.23
67430;BME280;54298;52.076;5.264;2023-04-06T06:39:16;101508.0;;;7.67;54.1
67430;BME280;54298;52.076;5.264;2023-04-06T06:42:28;101511.0;;;7.75;54.05
67430;BME280;54298;52.076;5.264;2023-04-06T06:44:04;101511.0;;;7.7;54.28
67430;BME280;54298;52.076;5.264;2023-04-06T06:45:41;101511.0;;;7.67;54.25
67430;BME280;54298;52.076;5.264;2023-04-06T06:48:54;101511.0;;;7.72;54.34
67430;BME280;54298;52.076;5.264;2023-04-06T06:50:30;101511.0;;;7.78;54.39
67430;BME280;54298;52.076;5.264;2023-04-06T06:52:06;101510.0;;;7.74;54.52
67430;BME280;54298;52.076;5.264;2023-04-06T06:53:42;101506.0;;;7.94;53.81
67430;BME280;54298;52.076;5.264;2023-04-06T06:56:54;101503.0;;;7.75;54.45
67430;BME280;54298;52.076;5.264;2023-04-06T06:58:31;101500.0;;;7.92;54.15
67430;BME280;54298;52.076;5.264;2023-04-06T07:00:08;101496.0;;;7.94;54.25
67430;BME280;54298;52.076;5.264;2023-04-06T07:03:21;101499.0;;;7.87;54.61
67430;BME280;54298;52.076;5.264;2023-04-06T07:04:57;101487.0;;;8.01;54.29
67430;BME280;54298;52.076;5.264;2023-04-06T07:06:34;101489.0;;;8.05;53.83
67430;BME280;54298;52.076;5.264;2023-04-06T07:09:47;101491.0;;;7.95;54.24
67430;BME280;54298;52.076;5.264;2023-04-06T07:11:24;101485.0;;;8.02;54.12
67430;BME280;54298;52.076;5.264;2023-04-06T07:13:00;101482.0;;;8.14;54.07
67430;BME280;54298;52.076;5.264;2023-04-06T07:14:36;101483.0;;;8.2;54.0
67430;BME280;54298;52.076;5.264;2023-04-06T07:17:48;101481.0;;;8.24;54.02
67430;BME280;54298;52.076;5.264;2023-04-06T07:19:24;101481.0;;;8.23;54.17
67430;BME280;54298;52.076;5.264;2023-04-06T07:21:00;101480.0;;;8.06;54.46
67430;BME280;54298;52.076;5.264;2023-04-06T07:24:14;101483.0;;;8.09;54.11
67430;BME280;54298;52.076;5.264;2023-04-06T07:25:50;101476.0;;;8.26;53.86
67430;BME280;54298;52.076;5.264;2023-04-06T07:27:26;101477.0;;;8.23;53.95
67430;BME280;54298;52.076;5.264;2023-04-06T07:30:39;101471.0;;;8.23;54.17
67430;BME280;54298;52.076;5.264;2023-04-06T07:32:16;101470.0;;;8.31;54.16
67430;BME280;54298;52.076;5.264;2023-04-06T07:33:52;101478.0;;;8.35;53.8
67430;BME280;54298;52.076;5.264;2023-04-06T07:37:04;101478.0;;;8.43;53.82
67430;BME280;54298;52.076;5.264;2023-04-06T07:38:40;101476.0;;;8.51;53.85
67430;BME280;54298;52.076;5.264;2023-04-06T07:40:16;101475.0;;;8.49;53.78
67430;BME280;54298;52.076;5.264;2023-04-06T07:41:52;101477.0;;;8.43;53.77
67430;BME280;54298;52.076;5.264;2023-04-06T07:45:05;101481.0;;;8.51;53.51
67430;BME280;54298;52.076;5.264;2023-04-06T07:46:42;101475.0;;;8.64;53.35
67430;BME280;54298;52.076;5.264;2023-04-06T07:48:18;101474.0;;;8.73;53.2
67430;BME280;54298;52.076;5.264;2023-04-06T07:51:30;101476.0;;;8.89;53.43
67430;BME280;54298;52.076;5.264;2023-04-06T07:53:06;101480.0;;;8.71;53.5
67430;BME280;54298;52.076;5.264;2023-04-06T07:54:44;101480.0;;;8.89;52.82
67430;BME280;54298;52.076;5.264;2023-04-06T07:57:56;101478.0;;;8.9;53.22
67430;BME280;54298;52.076;5.264;2023-04-06T07:59:33;101475.0;;;8.92;53.04
67430;BME280;54298;52.076;5.264;2023-04-06T08:01:09;101477.0;;;8.96;53.17
67430;BME280;54298;52.076;5.264;2023-04-06T08:02:45;101478.0;;;8.81;53.11
67430;BME280;54298;52.076;5.264;2023-04-06T08:05:57;101476.0;;;8.94;52.86
67430;BME280;54298;52.076;5.264;2023-04-06T08:07:34;101477.0;;;9.14;52.71
67430;BME280;54298;52.076;5.264;2023-04-06T08:09:10;101471.0;;;8.94;53.01
67430;BME280;54298;52.076;5.264;2023-04-06T08:12:21;101471.0;;;9.13;52.62
67430;BME280;54298;52.076;5.264;2023-04-06T08:13:57;101469.0;;;9.01;52.42
67430;BME280;54298;52.076;5.264;2023-04-06T08:15:33;101467.0;;;9.02;52.38
67430;BME280;54298;52.076;5.264;2023-04-06T08:18:45;101474.0;;;9.07;52.74
67430;BME280;54298;52.076;5.264;2023-04-06T08:20:22;101473.0;;;9.02;52.99
67430;BME280;54298;52.076;5.264;2023-04-06T08:21:58;101475.0;;;9.16;52.92
67430;BME280;54298;52.076;5.264;2023-04-06T08:25:10;101472.0;;;9.0;53.46
67430;BME280;54298;52.076;5.264;2023-04-06T08:26:45;101469.0;;;9.33;52.8
67430;BME280;54298;52.076;5.264;2023-04-06T08:28:21;101470.0;;;9.53;52.7
67430;BME280;54298;52.076;5.264;2023-04-06T08:29:57;101467.0;;;9.49;52.61
67430;BME280;54298;52.076;5.264;2023-04-06T08:33:10;101471.0;;;9.6;52.45
67430;BME280;54298;52.076;5.264;2023-04-06T08:34:46;101475.0;;;9.61;52.75
67430;BME280;54298;52.076;5.264;2023-04-06T08:36:22;101476.0;;;9.69;52.39
67430;BME280;54298;52.076;5.264;2023-04-06T08:39:34;101474.0;;;9.86;51.88
67430;BME280;54298;52.076;5.264;2023-04-06T08:41:11;101474.0;;;9.63;52.07
67430;BME280;54298;52.076;5.264;2023-04-06T08:42:52;101480.0;;;9.65;52.45
67430;BME280;54298;52.076;5.264;2023-04-06T08:46:08;101476.0;;;9.64;52.47
67430;BME280;54298;52.076;5.264;2023-04-06T08:47:44;101475.0;;;9.63;52.66
67430;BME280;54298;52.076;5.264;2023-04-06T08:49:22;101468.0;;;9.85;52.61
67430;BME280;54298;52.076;5.264;2023-04-06T08:50:58;101470.0;;;9.89;52.63
67430;BME280;54298;52.076;5.264;2023-04-06T08:54:13;101473.0;;;9.76;52.9
67430;BME280;54298;52.076;5.264;2023-04-06T08:55:49;101471.0;;;9.89;52.69
67430;BME280;54298;52.076;5.264;2023-04-06T08:57:26;101480.0;;;9.74;52.85
67430;BME280;54298;52.076;5.264;2023-04-06T09:00:40;101476.0;;;9.85;52.8
67430;BME280;54298;52.076;5.264;2023-04-06T09:02:18;101478.0;;;9.9;52.71
67430;BME280;54298;52.076;5.264;2023-04-06T09:03:56;101472.0;;;9.93;52.91
67430;BME280;54298;52.076;5.264;2023-04-06T09:05:34;101483.0;;;9.93;53.03
67430;BME280;54298;52.076;5.264;2023-04-06T09:08:47;101484.0;;;9.83;53.43
67430;BME280;54298;52.076;5.264;2023-04-06T09:10:23;101480.0;;;9.84;53.6
67430;BME280;54298;52.076;5.264;2023-04-06T09:11:59;101484.0;;;9.77;54.12
67430;BME280;54298;52.076;5.264;2023-04-06T09:15:21;101487.0;;;9.97;53.87
67430;BME280;54298;52.076;5.264;2023-04-06T09:16:58;101488.0;;;9.84;54.09
67430;BME280;54298;52.076;5.264;2023-04-06T09:18:34;101486.0;;;9.92;54.19
67430;BME280;54298;52.076;5.264;2023-04-06T09:20:11;101488.0;;;9.97;54.6
67430;BME280;54298;52.076;5.264;2023-04-06T09:23:23;101488.0;;;9.8;55.03
67430;BME280;54298;52.076;5.264;2023-04-06T09:24:59;101488.0;;;9.88;55.45
67430;BME280;54298;52.076;5.264;2023-04-06T09:26:50;101481.0;;;10.02;54.94
67430;BME280;54298;52.076;5.264;2023-04-06T09:30:04;101488.0;;;10.11;55.25
67430;BME280;54298;52.076;5.264;2023-04-06T09:31:41;101487.0;;;9.99;56.36
67430;BME280;54298;52.076;5.264;2023-04-06T09:33:23;101489.0;;;10.03;56.51
67430;BME280;54298;52.076;5.264;2023-04-06T09:35:07;101487.0;;;10.16;56.26
67430;BME280;54298;52.076;5.264;2023-04-06T09:38:19;101487.0;;;9.98;56.37
67430;BME280;54298;52.076;5.264;2023-04-06T09:40:02;101481.0;;;9.99;56.81
67430;BME280;54298;52.076;5.264;2023-04-06T09:41:39;101488.0;;;9.97;57.44
67430;BME280;54298;52.076;5.264;2023-04-06T09:43:23;101488.0;;;10.17;57.06
67430;BME280;54298;52.076;5.264;2023-04-06T09:46:37;101486.0;;;10.21;57.36
67430;BME280;54298;52.076;5.264;2023-04-06T09:48:15;101487.0;;;10.28;57.06
67430;BME280;54298;52.076;5.264;2023-04-06T09:49:56;101486.0;;;10.33;57.24
67430;BME280;54298;52.076;5.264;2023-04-06T09:51:36;101482.0;;;10.45;57.12
67430;BME280;54298;52.076;5.264;2023-04-06T09:54:55;101481.0;;;10.45;56.89
67430;BME280;54298;52.076;5.264;2023-04-06T09:56:44;101480.0;;;10.32;57.29
67430;BME280;54298;52.076;5.264;2023-04-06T09:58:22;101477.0;;;10.55;57.05
67430;BME280;54298;52.076;5.264;2023-04-06T10:00:03;101477.0;;;10.55;56.75
67430;BME280;54298;52.076;5.264;2023-04-06T10:03:21;101477.0;;;10.52;57.68
67430;BME280;54298;52.076;5.264;2023-04-06T10:05:09;101480.0;;;10.54;57.5
67430;BME280;54298;52.076;5.264;2023-04-06T10:06:48;101483.0;;;10.53;57.29
67430;BME280;54298;52.076;5.264;2023-04-06T10:08:26;101483.0;;;10.48;58.08
67430;BME280;54298;52.076;5.264;2023-04-06T10:11:41;101485.0;;;10.54;58.57
67430;BME280;54298;52.076;5.264;2023-04-06T10:13:19;101484.0;;;10.56;59.22
67430;BME280;54298;52.076;5.264;2023-04-06T10:14:56;101481.0;;;10.45;59.91
67430;BME280;54298;52.076;5.264;2023-04-06T10:18:08;101480.0;;;10.62;60.86
67430;BME280;54298;52.076;5.264;2023-04-06T10:19:49;101485.0;;;10.52;61.86
67430;BME280;54298;52.076;5.264;2023-04-06T10:21:40;101486.0;;;10.63;62.14
67430;BME280;54298;52.076;5.264;2023-04-06T10:23:23;101484.0;;;10.69;62.11
67430;BME280;54298;52.076;5.264;2023-04-06T10:25:07;101486.0;;;10.59;63.45
67430;BME280;54298;52.076;5.264;2023-04-06T10:28:34;101483.0;;;10.75;63.26
67430;BME280;54298;52.076;5.264;2023-04-06T10:30:15;101482.0;;;10.76;64.16
67430;BME280;54298;52.076;5.264;2023-04-06T10:31:51;101487.0;;;10.42;65.12
67430;BME280;54298;52.076;5.264;2023-04-06T10:33:28;101480.0;;;10.31;65.27
67430;BME280;54298;52.076;5.264;2023-04-06T10:36:43;101487.0;;;10.17;66.77
67430;BME280;54298;52.076;5.264;2023-04-06T10:38:20;101485.0;;;10.03;67.85
67430;BME280;54298;52.076;5.264;2023-04-06T10:39:56;101480.0;;;10.25;68.02
67430;BME280;54298;52.076;5.264;2023-04-06T10:43:10;101484.0;;;10.16;68.77
67430;BME280;54298;52.076;5.264;2023-04-06T10:44:49;101482.0;;;10.05;69.88
67430;BME280;54298;52.076;5.264;2023-04-06T10:46:26;101484.0;;;9.92;70.39
67430;BME280;54298;52.076;5.264;2023-04-06T10:48:20;101475.0;;;9.77;70.99
67430;BME280;54298;52.076;5.264;2023-04-06T10:51:33;101482.0;;;9.67;71.94
67430;BME280;54298;52.076;5.264;2023-04-06T10:53:21;101472.0;;;9.48;72.72
67430;BME280;54298;52.076;5.264;2023-04-06T10:54:58;101465.0;;;9.24;74.03
67430;BME280;54298;52.076;5.264;2023-04-06T10:56:36;101464.0;;;9.25;74.24
67430;BME280;54298;52.076;5.264;2023-04-06T10:59:53;101467.0;;;9.25;74.86
67430;BME280;54298;52.076;5.264;2023-04-06T11:01:28;101461.0;;;9.32;75.2
67430;BME280;54298;52.076;5.264;2023-04-06T11:03:04;101455.0;;;9.34;75.02
67430;BME280;54298;52.076;5.264;2023-04-06T11:06:19;101455.0;;;9.31;76.23
67430;BME280;54298;52.076;5.264;2023-04-06T11:07:56;101455.0;;;9.23;76.27
67430;BME280;54298;52.076;5.264;2023-04-06T11:09:31;101460.0;;;9.21;76.41
67430;BME280;54298;52.076;5.264;2023-04-06T11:11:09;101455.0;;;9.19;76.72
67430;BME280;54298;52.076;5.264;2023-04-06T11:14:28;101452.0;;;9.19;77.09
67430;BME280;54298;52.076;5.264;2023-04-06T11:16:04;101448.0;;;9.36;76.94
67430;BME280;54298;52.076;5.264;2023-04-06T11:17:40;101449.0;;;9.11;77.55
67430;BME280;54298;52.076;5.264;2023-04-06T11:20:53;101446.0;;;9.1;78.05
67430;BME280;54298;52.076;5.264;2023-04-06T11:22:30;101442.0;;;9.1;77.8
67430;BME280;54298;52.076;5.264;2023-04-06T11:24:08;101440.0;;;9.06;78.72